ADDS METAR Data INFO
IDs: Format: Raw Decoded Include TAF

Data at: 0155 UTC 17 Oct 2017

KOAK 170053Z 30009KT 10SM FEW024 BKN180 24/07 A3003 RMK AO2 SLP167 T02390072
KOAK 162353Z 30006KT 10SM FEW024 BKN180 26/08 A3003 RMK AO2 SLP170 T02610083 10261 20194 56017
KOAK 162253Z 30009KT 10SM FEW020 BKN180 24/08 A3005 RMK AO2 SLP175 T02440078
KOAK 162153Z 27007KT 10SM FEW012 SCT120 BKN200 24/08 A3006 RMK AO2 SLP179 T02440078
KOAK 162053Z 28008KT 10SM FEW012 SCT120 BKN200 23/06 A3009 RMK AO2 SLP187 T02330056 58024
KOAK 161953Z 27006KT 10SM FEW012 SCT120 BKN200 22/07 A3012 RMK AO2 SLP198 T02220067
KOAK 161853Z 26005KT 10SM FEW012 SCT120 BKN200 21/09 A3014 RMK AO2 SLP206 T02060089
KOAK 161753Z 25006KT 10SM FEW012 FEW120 SCT180 SCT250 20/09 A3016 RMK AO2 SLP212 T02000089 10206 20078 50006
KOAK 161653Z 24003KT 10SM FEW012 FEW120 SCT180 SCT250 18/14 A3017 RMK AO2 SLP214 T01780139
KOAK 161553Z 20004KT 10SM FEW120 SCT180 BKN250 16/12 A3016 RMK AO2 SLP210 T01610117
KOAK 161453Z 14004KT 10SM BKN250 10/07 A3014 RMK AO2 SLP206 T01000067 53009
KOAK 161353Z 16004KT 10SM FEW012 13/07 A3013 RMK AO2 SLP202 T01280072
KOAK 161253Z 00000KT 10SM FEW012 11/07 A3012 RMK AO2 SLP199 T01060072
KOAK 161153Z 00000KT 10SM FEW012 11/07 A3011 RMK AO2 SLP196 T01060067 10178 20089 56004
KOAK 161053Z 00000KT 10SM FEW012 11/07 A3011 RMK AO2 SLP196 T01060072
KOAK 160953Z 00000KT 10SM FEW012 13/07 A3012 RMK AO2 SLP198 T01330072
KOAK 160853Z 04004KT 10SM FEW012 12/08 A3013 RMK AO2 SLP200 T01220078 53001
KOAK 160753Z 25003KT 10SM CLR 15/09 A3012 RMK AO2 SLP197 T01500089 402610078
KOAK 160653Z 00000KT 10SM CLR 13/09 A3012 RMK AO2 SLP199 T01330089
KOAK 160553Z 29004KT 10SM CLR 18/12 A3012 RMK AO2 SLP198 T01780117 10244 20150 51008
KOAK 160453Z 00000KT 10SM CLR 17/06 A3012 RMK AO2 SLP197 T01720056
KOAK 160353Z 28003KT 10SM CLR 19/07 A3011 RMK AO2 SLP195 T01890072
KOAK 160253Z 00000KT 10SM FEW250 22/05 A3010 RMK AO2 SLP190 T02170050 53006
KOAK 160153Z 31004KT 10SM FEW250 22/06 A3008 RMK AO2 SLP186 T02170061
KOAK 160053Z 31004KT 10SM FEW250 23/09 A3007 RMK AO2 SLP182 T02330094
KOAK 152353Z 31008KT 10SM FEW250 24/09 A3008 RMK AO2 SLP184 T02390089 10261 20183 56010
KOAK 152253Z 30007KT 10SM FEW180 FEW250 26/06 A3008 RMK AO2 SLP187 T02610056
KOAK 152153Z 27006KT 10SM FEW180 SCT250 24/07 A3009 RMK AO2 SLP188 T02390067
KOAK 152053Z 25006KT 10SM FEW180 SCT250 23/04 A3011 RMK AO2 SLP195 T02280044 58012
KOAK 151953Z 27006KT 10SM FEW180 SCT250 21/06 A3013 RMK AO2 SLP202 T02110061
KOAK 151853Z 22006KT 10SM FEW180 SCT250 19/09 A3014 RMK AO2 SLP206 T01890094
KOAK 151753Z 17009KT 10SM FEW180 SCT250 19/09 A3014 RMK AO2 SLP207 T01890094 10200 20094 51009
KOAK 151653Z 12007KT 10SM FEW180 SCT250 19/05 A3014 RMK AO2 SLP207 T01940050
KOAK 151553Z 13005KT 10SM FEW180 SCT250 17/06 A3014 RMK AO2 SLP203 T01670061
KOAK 151453Z 10005KT 10SM BKN300 14/01 A3012 RMK AO2 SLP197 T01440006 53011